createdAt,value
2023-03-18T14:55:34.900Z,15.50
2023-03-18T14:58:02.739Z,15.50
2023-03-18T15:00:34.842Z,14.70
2023-03-18T15:03:07.552Z,15.50
2023-03-18T15:05:42.338Z,14.50
2023-03-18T15:08:17.939Z,14.40
2023-03-18T15:10:51.536Z,14.40
2023-03-18T15:13:23.633Z,15.10
2023-03-18T15:15:54.955Z,14.30
2023-03-18T15:18:36.035Z,15.40
2023-03-18T15:21:26.154Z,14.70
2023-03-18T15:23:57.425Z,15.20
2023-03-18T15:26:28.873Z,14.20
2023-03-18T15:28:58.783Z,14.50
2023-03-18T15:31:30.217Z,14.30
2023-03-18T15:34:17.314Z,14.20
2023-03-18T15:36:53.014Z,14.20
2023-03-18T15:39:41.770Z,14.80
2023-03-18T15:42:35.826Z,14.10
2023-03-18T15:45:05.328Z,14.00
2023-03-18T15:47:33.392Z,14.90
2023-03-18T15:50:14.566Z,14.10
2023-03-18T15:52:42.945Z,14.30
2023-03-18T15:55:32.866Z,14.80
2023-03-18T15:58:05.818Z,13.90
2023-03-18T16:00:34.088Z,13.90
2023-03-18T16:03:02.768Z,13.90
2023-03-18T16:05:29.988Z,13.80
2023-03-18T16:07:57.044Z,13.70
2023-03-18T16:10:26.534Z,13.80
2023-03-18T16:12:59.289Z,14.90
2023-03-18T16:15:27.797Z,14.40
2023-03-18T16:17:56.356Z,13.80
2023-03-18T16:20:28.827Z,13.40
2023-03-18T16:22:56.435Z,13.20
2023-03-18T16:25:24.813Z,13.10
2023-03-18T16:27:57.303Z,14.10
2023-03-18T16:30:29.967Z,13.00
2023-03-18T16:32:59.054Z,12.90
2023-03-18T16:35:33.429Z,12.90
2023-03-18T16:38:01.106Z,12.90
2023-03-18T16:40:30.762Z,13.30
2023-03-18T16:42:58.367Z,13.50
2023-03-18T16:45:33.560Z,12.70
2023-03-18T16:48:07.224Z,12.70
2023-03-18T16:50:40.557Z,12.50
2023-03-18T16:53:21.774Z,12.50
2023-03-18T16:55:51.785Z,12.30
2023-03-18T16:58:22.182Z,13.60
2023-03-18T17:03:18.473Z,12.00
2023-03-18T17:05:50.265Z,11.90
2023-03-18T17:08:22.044Z,12.70
2023-03-18T17:10:52.781Z,10.90
2023-03-18T17:13:23.114Z,11.40
2023-03-18T17:15:51.401Z,11.30
2023-03-18T17:18:23.107Z,11.20
2023-03-18T17:20:52.035Z,11.80
2023-03-18T17:23:21.524Z,12.40
2023-03-18T17:25:54.033Z,12.10
2023-03-18T17:28:37.898Z,11.60
2023-03-18T17:31:11.421Z,11.30
2023-03-18T17:33:39.093Z,11.30
2023-03-18T17:36:07.496Z,11.40
2023-03-18T17:38:35.231Z,11.40
2023-03-18T17:41:05.672Z,11.40
2023-03-18T17:43:35.838Z,11.30
2023-03-18T17:46:04.203Z,11.20
2023-03-18T17:48:33.790Z,11.20
2023-03-18T17:51:13.965Z,11.90
2023-03-18T17:53:47.772Z,11.10
2023-03-18T17:56:17.437Z,11.10
2023-03-18T17:58:46.708Z,10.90
2023-03-18T18:01:18.133Z,10.90
2023-03-18T18:03:46.042Z,10.90
2023-03-18T18:06:21.507Z,11.80
2023-03-18T18:11:31.592Z,10.70
2023-03-18T18:14:10.199Z,10.60
2023-03-18T18:31:24.070Z,10.00
2023-03-18T18:36:19.394Z,10.00
2023-03-18T18:41:14.249Z,10.10
2023-03-18T18:46:14.562Z,10.10
2023-03-18T18:51:18.318Z,10.70
2023-03-18T18:53:45.987Z,9.80
2023-03-18T19:01:09.561Z,9.90
2023-03-18T19:08:36.127Z,9.80
2023-03-18T19:11:07.014Z,9.80
2023-03-18T19:13:36.523Z,6.60
2023-03-18T19:16:25.263Z,10.50
2023-03-18T19:18:52.291Z,14.40
2023-03-18T19:26:16.071Z,9.60
2023-03-18T19:31:27.184Z,9.40
2023-03-18T19:33:54.562Z,9.40
2023-03-18T19:36:32.325Z,9.40
2023-03-18T19:39:01.327Z,9.40
2023-03-18T19:41:28.866Z,9.50
2023-03-18T19:44:03.941Z,9.40
2023-03-18T19:46:39.408Z,10.70
2023-03-18T19:49:28.624Z,9.40
2023-03-18T19:54:36.559Z,9.50
2023-03-18T19:57:06.714Z,9.50
2023-03-18T19:59:39.283Z,9.90
2023-03-18T20:02:23.648Z,9.60
2023-03-18T20:04:52.731Z,9.40
2023-03-18T20:07:22.130Z,9.50
2023-03-18T20:09:49.166Z,10.40
2023-03-18T20:12:19.168Z,10.30
2023-03-18T20:14:46.815Z,9.40
2023-03-18T20:17:30.012Z,9.40
2023-03-18T20:22:32.340Z,9.40
2023-03-18T20:25:00.588Z,9.30
2023-03-18T20:27:27.738Z,9.40
2023-03-18T20:29:54.748Z,9.40
2023-03-18T20:32:21.751Z,9.30
2023-03-18T20:37:36.744Z,9.30
2023-03-18T20:40:07.584Z,9.30
2023-03-18T20:45:07.552Z,9.30
2023-03-18T20:47:58.536Z,9.20
2023-03-18T20:50:30.980Z,9.30
2023-03-18T20:58:20.382Z,9.20
2023-03-18T21:03:25.856Z,9.00
2023-03-18T21:10:12.702Z,9.30
2023-03-18T21:13:30.766Z,8.60
2023-03-18T21:15:59.363Z,9.10
2023-03-18T21:19:04.706Z,9.20
2023-03-18T21:24:47.584Z,10.00
2023-03-18T21:27:23.376Z,9.30
2023-03-18T21:31:11.967Z,11.40
2023-03-18T21:41:36.620Z,9.40
2023-03-18T21:46:52.549Z,9.90
2023-03-18T21:50:23.192Z,10.60
2023-03-18T21:54:25.889Z,9.50
2023-03-18T22:32:57.238Z,9.70
2023-03-18T22:35:43.371Z,9.70
2023-03-18T22:42:34.981Z,10.20
2023-03-18T22:46:36.550Z,9.50
2023-03-18T22:53:17.945Z,9.60
